Time;durP1;ratioP1;P1;durP2;ratioP2;P2;SDS_P1;SDS_P2;PMS_P1;PMS_P2;Temp;Humidity;BMP_temperature;BMP_pressure;BME280_temperature;BME280_humidity;BME280_pressure;Samples;Min_cycle;Max_cycle;Signal;HPM_P1;HPM_P2
2023/01/27 00:01:14;;;;;;;20.10;10.37;;;-0.90;99.90;;;;;;6245662;23;20760;-84
2023/01/27 00:03:40;;;;;;;22.10;10.80;;;-0.90;99.90;;;;;;6247079;22;20149;-83
2023/01/27 00:06:05;;;;;;;19.50;11.47;;;-0.90;99.90;;;;;;6245307;23;20175;-81
2023/01/27 00:08:31;;;;;;;23.23;11.10;;;-0.80;99.90;;;;;;6243788;23;20148;-81
2023/01/27 00:13:42;;;;;;;21.42;11.27;;;-0.90;99.90;;;;;;6241202;23;20144;-82
2023/01/27 00:16:07;;;;;;;21.33;11.40;;;-0.90;99.90;;;;;;6239866;23;20395;-83
2023/01/27 00:18:33;;;;;;;22.23;11.13;;;-0.80;99.90;;;;;;6240361;23;20244;-84
2023/01/27 00:26:26;;;;;;;20.92;11.80;;;-0.80;99.90;;;;;;6241482;23;20143;-83
2023/01/27 00:28:52;;;;;;;19.23;10.90;;;-0.80;99.90;;;;;;6241072;23;20148;-84
2023/01/27 00:34:07;;;;;;;22.33;10.75;;;-0.60;99.90;;;;;;6247028;23;20203;-85
2023/01/27 00:36:34;;;;;;;21.27;11.00;;;-0.70;99.90;;;;;;6240901;23;20151;-86
2023/01/27 00:38:59;;;;;;;24.05;12.40;;;-0.70;99.90;;;;;;6240382;22;20152;-84
2023/01/27 00:41:27;;;;;;;19.73;9.83;;;-0.60;99.90;;;;;;6239313;23;20152;-84
2023/01/27 00:43:53;;;;;;;16.23;8.48;;;-0.60;99.90;;;;;;6238902;23;20160;-83
2023/01/27 00:46:20;;;;;;;9.90;7.15;;;-0.60;99.90;;;;;;6238134;23;20176;-82
2023/01/27 00:48:46;;;;;;;12.80;7.40;;;-0.60;99.90;;;;;;6238780;23;20156;-84
2023/01/27 00:51:12;;;;;;;14.05;7.50;;;-0.80;99.90;;;;;;6238865;23;20202;-84
2023/01/27 00:53:38;;;;;;;13.97;7.70;;;-0.80;99.90;;;;;;6240832;22;20145;-83
2023/01/27 00:56:04;;;;;;;12.37;6.47;;;-0.80;99.90;;;;;;6238237;23;20418;-83
2023/01/27 00:58:30;;;;;;;11.93;6.60;;;-0.90;99.90;;;;;;6241306;23;20720;-81
2023/01/27 01:00:58;;;;;;;13.75;7.85;;;-0.80;99.90;;;;;;6232656;23;20164;-83
2023/01/27 01:03:24;;;;;;;14.98;7.45;;;-0.80;99.90;;;;;;6239986;22;20149;-81
2023/01/27 01:05:50;;;;;;;15.60;7.82;;;-0.80;99.90;;;;;;6237230;23;20226;-86
2023/01/27 01:08:16;;;;;;;12.53;8.53;;;-0.80;99.90;;;;;;6240003;23;20834;-82
2023/01/27 01:10:42;;;;;;;15.90;7.73;;;-0.80;99.90;;;;;;6254186;23;20392;-81
2023/01/27 01:13:10;;;;;;;14.27;8.60;;;-0.80;99.90;;;;;;6256101;22;20148;-79
2023/01/27 01:15:40;;;;;;;15.60;7.63;;;-0.80;99.90;;;;;;6253608;22;20190;-80
2023/01/27 01:18:06;;;;;;;11.98;8.02;;;-0.60;99.90;;;;;;6253159;22;20272;-80
2023/01/27 01:20:40;;;;;;;13.05;8.15;;;-0.50;99.90;;;;;;6251662;22;20144;-81
2023/01/27 01:23:06;;;;;;;14.93;8.40;;;-0.60;99.90;;;;;;6252860;23;20204;-81
2023/01/27 01:25:32;;;;;;;12.75;6.88;;;-0.60;99.90;;;;;;6250531;23;20168;-81
2023/01/27 01:27:58;;;;;;;14.82;8.35;;;-0.70;99.90;;;;;;6255109;23;20163;-82
2023/01/27 01:30:26;;;;;;;11.17;7.43;;;-0.70;99.90;;;;;;6255641;23;20156;-81
2023/01/27 01:32:52;;;;;;;19.67;9.85;;;-0.70;99.90;;;;;;6258708;22;20174;-80
2023/01/27 01:35:18;;;;;;;13.95;8.98;;;-0.40;99.90;;;;;;6255215;22;20202;-82
2023/01/27 01:37:44;;;;;;;17.90;8.50;;;-0.30;99.90;;;;;;6251639;23;20205;-83
2023/01/27 01:40:13;;;;;;;13.47;8.70;;;-0.20;99.90;;;;;;6238344;23;20372;-85
2023/01/27 01:43:10;;;;;;;13.20;7.57;;;-0.20;99.90;;;;;;6239059;23;20175;-84
2023/01/27 01:45:41;;;;;;;14.30;7.72;;;-0.20;99.90;;;;;;6267966;22;20183;-84
2023/01/27 01:48:41;;;;;;;13.70;7.57;;;-0.20;99.90;;;;;;6243536;23;20148;-85
2023/01/27 01:51:26;;;;;;;15.43;8.52;;;-0.20;99.90;;;;;;6245566;22;20163;-84
2023/01/27 01:53:58;;;;;;;11.70;7.13;;;-0.10;99.90;;;;;;6245266;22;20136;-82
2023/01/27 01:56:37;;;;;;;14.05;7.18;;;-0.20;99.90;;;;;;6242393;23;20149;-83
2023/01/27 01:59:08;;;;;;;18.23;8.43;;;-0.20;99.90;;;;;;6248197;22;20133;-82
2023/01/27 02:01:34;;;;;;;11.95;8.45;;;-0.10;99.90;;;;;;6244580;23;20141;-83
2023/01/27 02:04:03;;;;;;;16.13;9.07;;;-0.10;99.90;;;;;;6241509;23;20148;-83
2023/01/27 02:06:35;;;;;;;15.18;9.50;;;0.00;99.90;;;;;;6236814;23;20196;-82
2023/01/27 02:09:01;;;;;;;13.60;7.78;;;0.00;99.90;;;;;;6239686;22;20206;-82
2023/01/27 02:11:27;;;;;;;16.63;8.97;;;0.10;99.90;;;;;;6237098;23;20905;-82
2023/01/27 02:13:53;;;;;;;14.77;8.23;;;0.00;99.90;;;;;;6235538;23;20475;-80
2023/01/27 02:16:18;;;;;;;15.20;10.47;;;0.00;99.90;;;;;;6234994;23;21328;-82
2023/01/27 02:18:44;;;;;;;21.20;10.63;;;0.00;99.90;;;;;;6238538;23;20188;-84
2023/01/27 02:21:09;;;;;;;14.80;8.53;;;0.10;99.90;;;;;;6234234;23;20709;-81
2023/01/27 02:23:56;;;;;;;17.07;9.53;;;0.10;99.90;;;;;;6236359;23;20148;-83
2023/01/27 02:26:43;;;;;;;15.82;9.13;;;0.10;99.90;;;;;;6236598;23;20182;-83
2023/01/27 02:29:11;;;;;;;19.13;9.70;;;-0.10;99.90;;;;;;6231803;23;20689;-82
2023/01/27 02:31:37;;;;;;;17.10;8.98;;;-0.10;99.90;;;;;;6236303;22;20183;-85
2023/01/27 02:34:09;;;;;;;18.07;9.30;;;0.00;99.90;;;;;;6236485;23;20152;-83
2023/01/27 02:36:41;;;;;;;16.17;9.30;;;0.00;99.90;;;;;;6234040;22;20152;-82
2023/01/27 02:39:09;;;;;;;14.32;8.32;;;-0.10;99.90;;;;;;6233386;23;20234;-84
2023/01/27 02:41:43;;;;;;;14.32;8.82;;;-0.10;99.90;;;;;;6235121;23;20159;-83
2023/01/27 02:44:08;;;;;;;23.05;10.13;;;-0.20;99.90;;;;;;6236827;22;20146;-82
2023/01/27 02:46:35;;;;;;;15.63;8.57;;;-0.40;99.90;;;;;;6238006;23;20152;-80
2023/01/27 02:49:01;;;;;;;15.38;8.70;;;-0.30;99.90;;;;;;6237634;23;20153;-85
2023/01/27 02:51:27;;;;;;;13.57;9.50;;;-0.20;99.90;;;;;;6237727;23;20202;-83
2023/01/27 02:53:52;;;;;;;15.13;9.00;;;-0.10;99.90;;;;;;6241008;23;20149;-81
2023/01/27 02:56:18;;;;;;;13.57;7.50;;;0.00;99.90;;;;;;6241741;23;20402;-83
2023/01/27 02:58:44;;;;;;;16.00;9.90;;;0.10;99.90;;;;;;6239920;23;20184;-85
2023/01/27 03:01:09;;;;;;;15.13;9.20;;;0.00;99.90;;;;;;6239330;23;20175;-83
2023/01/27 03:03:35;;;;;;;14.90;9.23;;;0.00;99.90;;;;;;6241293;23;20591;-81
2023/01/27 03:06:00;;;;;;;14.63;8.03;;;0.00;99.90;;;;;;6238638;23;20199;-81
2023/01/27 03:08:26;;;;;;;13.80;8.20;;;-0.10;99.90;;;;;;6240149;23;20160;-82
2023/01/27 03:10:53;;;;;;;19.83;8.80;;;-0.10;99.90;;;;;;6228395;23;20239;-83
2023/01/27 03:13:23;;;;;;;15.30;8.07;;;-0.10;99.90;;;;;;6241932;22;20152;-84
2023/01/27 03:18:34;;;;;;;12.32;7.78;;;0.00;99.90;;;;;;6240112;23;20242;-80
2023/01/27 03:21:02;;;;;;;16.70;10.00;;;0.00;99.90;;;;;;6239907;22;20605;-82
2023/01/27 03:23:28;;;;;;;13.30;8.18;;;0.00;99.90;;;;;;6241608;22;20405;-83
2023/01/27 03:25:53;;;;;;;17.17;8.27;;;0.00;99.90;;;;;;6241236;23;20164;-83
2023/01/27 03:28:19;;;;;;;15.60;8.53;;;-0.10;99.90;;;;;;6253137;23;20176;-83
2023/01/27 03:30:44;;;;;;;16.37;8.67;;;-0.20;99.90;;;;;;6253953;23;20219;-82
2023/01/27 03:33:10;;;;;;;15.80;7.87;;;-0.20;99.90;;;;;;6244436;23;20251;-82
2023/01/27 03:35:47;;;;;;;14.13;8.43;;;-0.40;99.90;;;;;;6239222;23;20191;-80
2023/01/27 03:46:27;;;;;;;15.75;8.70;;;-0.30;99.90;;;;;;6241733;23;20148;-83
2023/01/27 03:48:55;;;;;;;15.27;8.77;;;-0.40;99.90;;;;;;6240503;23;20571;-86
2023/01/27 03:51:23;;;;;;;20.77;10.60;;;-0.50;99.90;;;;;;6239402;23;20172;-80
2023/01/27 03:53:49;;;;;;;18.80;9.05;;;-0.60;99.90;;;;;;6236287;23;20156;-82
2023/01/27 03:56:17;;;;;;;17.60;9.40;;;-0.60;99.90;;;;;;6246552;23;20202;-82
2023/01/27 03:58:43;;;;;;;17.52;10.10;;;-0.50;99.90;;;;;;6240302;23;20214;-82
2023/01/27 04:01:20;;;;;;;18.77;10.43;;;-0.50;99.90;;;;;;6236022;23;20157;-82
2023/01/27 04:06:54;;;;;;;22.25;9.43;;;-0.50;99.90;;;;;;6238098;23;20217;-81
2023/01/27 04:09:25;;;;;;;14.57;9.10;;;-0.40;99.90;;;;;;6241745;22;20152;-85
2023/01/27 04:11:54;;;;;;;15.82;8.93;;;-0.40;99.90;;;;;;6238699;23;20177;-82
2023/01/27 04:14:28;;;;;;;21.92;11.05;;;-0.30;99.90;;;;;;6239527;23;20179;-82
2023/01/27 04:17:06;;;;;;;17.65;9.07;;;-0.40;99.90;;;;;;6241659;22;20161;-81
2023/01/27 04:19:32;;;;;;;17.67;9.35;;;-0.40;99.90;;;;;;6242084;23;20773;-83
2023/01/27 04:21:59;;;;;;;17.83;10.35;;;-0.40;99.90;;;;;;6240460;23;20152;-83
2023/01/27 04:24:24;;;;;;;16.67;10.00;;;-0.30;99.90;;;;;;6237060;23;20172;-83
2023/01/27 04:26:56;;;;;;;17.27;8.90;;;-0.30;99.90;;;;;;6239920;23;20152;-81
2023/01/27 04:29:24;;;;;;;19.58;9.77;;;-0.40;99.90;;;;;;6240218;22;20199;-81
2023/01/27 04:31:50;;;;;;;17.80;10.00;;;-0.40;99.90;;;;;;6233579;22;20145;-81
2023/01/27 04:34:16;;;;;;;21.30;11.23;;;-0.40;99.90;;;;;;6238034;23;20160;-82
2023/01/27 04:36:41;;;;;;;15.50;9.17;;;-0.50;99.90;;;;;;6237970;23;20836;-82
2023/01/27 04:39:08;;;;;;;25.67;11.73;;;-0.50;99.90;;;;;;6243579;23;20410;-80
2023/01/27 04:41:34;;;;;;;20.38;10.85;;;-0.50;99.90;;;;;;6250249;22;20662;-81
2023/01/27 04:44:01;;;;;;;21.10;10.77;;;-0.30;99.90;;;;;;6239194;22;20194;-80
2023/01/27 04:46:26;;;;;;;23.70;10.32;;;-0.20;99.90;;;;;;6238469;23;20419;-83
2023/01/27 04:48:52;;;;;;;18.93;11.80;;;-0.30;99.90;;;;;;6240714;23;20164;-83
2023/01/27 04:51:18;;;;;;;21.73;11.40;;;-0.30;99.90;;;;;;6241134;22;20144;-83
2023/01/27 04:53:43;;;;;;;25.10;12.20;;;-0.40;99.90;;;;;;6239555;23;20375;-83
2023/01/27 04:56:22;;;;;;;22.13;12.43;;;-0.50;99.90;;;;;;6245245;23;20541;-83
2023/01/27 04:58:48;;;;;;;20.65;9.73;;;-0.50;99.90;;;;;;6241563;23;20184;-82
2023/01/27 05:01:13;;;;;;;21.30;11.60;;;-0.40;99.90;;;;;;6238307;23;20539;-85
2023/01/27 05:03:39;;;;;;;18.47;10.70;;;-0.40;99.90;;;;;;6239244;23;20383;-82
2023/01/27 05:06:04;;;;;;;26.40;10.60;;;-0.50;99.90;;;;;;6240481;23;20175;-83
2023/01/27 05:08:30;;;;;;;17.40;11.00;;;-0.50;99.90;;;;;;6236552;23;20163;-85
2023/01/27 05:10:55;;;;;;;24.70;9.33;;;-0.50;99.90;;;;;;6238428;23;20157;-83
2023/01/27 05:13:21;;;;;;;17.60;10.40;;;-0.60;99.90;;;;;;6239851;23;20642;-83
2023/01/27 05:15:47;;;;;;;18.77;10.60;;;-0.70;99.90;;;;;;6237769;23;20527;-84
2023/01/27 05:18:13;;;;;;;24.50;11.50;;;-0.70;99.90;;;;;;6240143;23;20188;-83
2023/01/27 05:20:39;;;;;;;22.13;11.02;;;-0.80;99.90;;;;;;6234620;22;20382;-83
2023/01/27 05:25:48;;;;;;;19.55;10.77;;;-0.70;99.90;;;;;;6240260;23;20179;-82
2023/01/27 05:28:14;;;;;;;23.00;12.60;;;-0.70;99.90;;;;;;6236565;23;20156;-83
2023/01/27 05:30:39;;;;;;;27.50;10.87;;;-0.60;99.90;;;;;;6239274;23;20156;-81
2023/01/27 05:33:06;;;;;;;22.93;11.20;;;-0.50;99.90;;;;;;6237758;23;20148;-80
2023/01/27 05:35:34;;;;;;;24.80;10.57;;;-0.50;99.90;;;;;;6240883;22;20275;-82
2023/01/27 05:37:59;;;;;;;18.30;9.93;;;-0.40;99.90;;;;;;6242849;23;20926;-82
2023/01/27 05:40:25;;;;;;;20.97;10.23;;;-0.40;99.90;;;;;;6245123;23;20239;-80
2023/01/27 05:42:52;;;;;;;19.50;9.87;;;-0.50;99.90;;;;;;6247060;23;20624;-83
2023/01/27 05:45:17;;;;;;;18.85;10.05;;;-0.50;99.90;;;;;;6237655;23;20407;-85
2023/01/27 05:47:43;;;;;;;18.77;10.30;;;-0.40;99.90;;;;;;6234251;23;20550;-83
2023/01/27 05:50:09;;;;;;;17.43;9.50;;;-0.30;99.90;;;;;;6247367;23;20152;-83
2023/01/27 05:52:34;;;;;;;19.70;10.40;;;-0.20;99.90;;;;;;6239904;22;20144;-83
2023/01/27 05:55:00;;;;;;;19.20;9.90;;;-0.20;99.90;;;;;;6240780;23;20192;-84
2023/01/27 05:57:25;;;;;;;21.23;10.67;;;-0.20;99.90;;;;;;6244876;23;20196;-83
2023/01/27 05:59:51;;;;;;;17.93;10.57;;;-0.20;99.90;;;;;;6243231;23;20148;-82
2023/01/27 06:02:16;;;;;;;22.17;11.10;;;-0.20;99.90;;;;;;6242188;23;20464;-83
2023/01/27 06:04:42;;;;;;;19.93;9.43;;;-0.30;99.90;;;;;;6242133;23;20188;-85
2023/01/27 06:07:07;;;;;;;16.83;9.50;;;-0.40;99.90;;;;;;6244894;23;20616;-83
2023/01/27 06:09:33;;;;;;;19.40;10.30;;;-0.40;99.90;;;;;;6238474;23;20261;-83
2023/01/27 06:11:58;;;;;;;15.97;9.70;;;-0.30;99.90;;;;;;6237965;23;20195;-83
2023/01/27 06:14:24;;;;;;;20.10;10.00;;;-0.30;99.90;;;;;;6242060;23;20168;-83
2023/01/27 06:16:49;;;;;;;21.00;10.57;;;-0.30;99.90;;;;;;6241326;23;20446;-84
2023/01/27 06:19:15;;;;;;;20.60;10.97;;;-0.30;99.90;;;;;;6242229;23;20144;-81
2023/01/27 06:21:40;;;;;;;17.60;10.63;;;-0.30;99.90;;;;;;6248448;23;20416;-83
2023/01/27 06:24:06;;;;;;;18.83;10.00;;;-0.20;99.90;;;;;;6245212;23;20147;-83
2023/01/27 06:26:31;;;;;;;19.33;9.27;;;-0.20;99.90;;;;;;6241418;23;20145;-84
2023/01/27 06:28:57;;;;;;;16.00;8.27;;;-0.20;99.90;;;;;;6238227;23;20598;-85
2023/01/27 06:31:22;;;;;;;18.27;8.83;;;-0.20;99.90;;;;;;6240198;23;20159;-81
2023/01/27 06:33:49;;;;;;;17.47;10.20;;;-0.20;99.90;;;;;;6239624;23;20180;-81
2023/01/27 06:36:18;;;;;;;18.80;9.02;;;-0.30;99.90;;;;;;6238488;22;20171;-83
2023/01/27 06:38:44;;;;;;;18.85;9.80;;;-0.20;99.90;;;;;;6238437;22;20172;-84
2023/01/27 06:41:10;;;;;;;13.45;6.53;;;-0.30;99.90;;;;;;6239955;23;20148;-83
2023/01/27 06:43:36;;;;;;;14.70;7.40;;;-0.30;99.90;;;;;;6234109;23;20152;-83
2023/01/27 06:46:02;;;;;;;17.03;6.50;;;-0.30;99.90;;;;;;6236279;23;20403;-83
2023/01/27 06:48:27;;;;;;;18.50;8.70;;;-0.30;99.90;;;;;;6235141;22;20136;-82
2023/01/27 06:50:54;;;;;;;12.80;8.10;;;-0.40;99.90;;;;;;6232632;23;20948;-81
2023/01/27 06:53:20;;;;;;;15.35;7.70;;;-0.40;99.90;;;;;;6235110;23;20156;-82
2023/01/27 06:55:46;;;;;;;16.65;8.38;;;-0.30;99.90;;;;;;6232285;23;20179;-81
2023/01/27 06:58:13;;;;;;;17.00;9.10;;;-0.30;99.90;;;;;;6235323;23;20643;-81
2023/01/27 07:00:40;;;;;;;19.42;9.88;;;-0.30;99.90;;;;;;6235276;23;20461;-84
2023/01/27 07:03:06;;;;;;;16.58;8.45;;;-0.30;99.90;;;;;;6148435;23;20155;-83
2023/01/27 07:05:32;;;;;;;15.03;8.03;;;-0.30;99.90;;;;;;6145398;22;20165;-80
2023/01/27 07:07:59;;;;;;;13.38;7.90;;;-0.30;99.90;;;;;;6232227;23;20387;-81
2023/01/27 07:10:24;;;;;;;20.45;8.98;;;-0.30;99.90;;;;;;6236496;22;20168;-83
2023/01/27 07:12:50;;;;;;;12.53;7.60;;;-0.30;99.90;;;;;;6234651;23;20160;-83
2023/01/27 07:15:15;;;;;;;18.93;10.10;;;-0.30;99.90;;;;;;6235046;23;20263;-82
2023/01/27 07:17:41;;;;;;;17.30;10.27;;;-0.30;99.90;;;;;;6237422;23;20218;-83
2023/01/27 07:20:09;;;;;;;17.47;10.10;;;-0.40;99.90;;;;;;6247359;23;20598;-84
2023/01/27 07:22:35;;;;;;;19.27;10.20;;;-0.40;99.90;;;;;;6237272;22;20603;-83
2023/01/27 07:25:02;;;;;;;21.57;11.77;;;-0.40;99.90;;;;;;6233371;23;20238;-86
2023/01/27 07:27:28;;;;;;;19.38;9.70;;;-0.20;99.90;;;;;;6209008;23;20167;-82
2023/01/27 07:29:53;;;;;;;17.75;9.75;;;-0.30;99.90;;;;;;6227861;23;20163;-83
2023/01/27 07:32:19;;;;;;;25.00;12.00;;;-0.30;99.90;;;;;;6238214;23;20148;-84
2023/01/27 07:34:45;;;;;;;20.10;10.37;;;-0.30;99.90;;;;;;6233430;23;20267;-84
2023/01/27 07:37:11;;;;;;;20.90;12.40;;;-0.20;99.90;;;;;;6243388;23;20172;-84
2023/01/27 07:39:37;;;;;;;24.52;11.70;;;-0.20;99.90;;;;;;6230476;23;20152;-83
2023/01/27 07:42:04;;;;;;;18.20;10.30;;;-0.10;99.90;;;;;;6245336;23;20221;-81
2023/01/27 07:44:29;;;;;;;19.08;10.75;;;0.10;99.90;;;;;;6236663;23;20192;-83
2023/01/27 07:46:57;;;;;;;20.90;11.40;;;0.00;99.90;;;;;;6236518;23;20599;-85
2023/01/27 07:49:23;;;;;;;18.27;10.70;;;0.00;99.90;;;;;;6235548;22;20160;-82
2023/01/27 07:51:48;;;;;;;22.97;11.60;;;0.10;99.90;;;;;;6236792;23;20149;-82
2023/01/27 07:54:14;;;;;;;21.80;11.27;;;0.20;99.90;;;;;;6240311;23;20141;-84
2023/01/27 07:56:39;;;;;;;18.33;9.30;;;0.20;99.90;;;;;;6234688;23;20156;-83
2023/01/27 07:59:05;;;;;;;22.20;11.40;;;0.10;99.90;;;;;;6236647;23;20153;-81
2023/01/27 08:01:31;;;;;;;21.77;11.07;;;0.10;99.90;;;;;;6237939;23;20228;-83
2023/01/27 08:03:57;;;;;;;23.23;10.93;;;0.00;99.90;;;;;;6238504;23;20153;-83
2023/01/27 08:06:23;;;;;;;17.10;9.43;;;0.00;99.90;;;;;;6242002;23;20168;-83
2023/01/27 08:08:48;;;;;;;19.60;10.90;;;0.00;99.90;;;;;;6243741;23;20933;-80
2023/01/27 08:11:14;;;;;;;14.97;9.07;;;0.10;99.90;;;;;;6238410;23;20232;-82
2023/01/27 08:13:41;;;;;;;19.40;9.50;;;0.20;99.90;;;;;;6236887;23;20156;-79
2023/01/27 08:16:10;;;;;;;46.83;23.27;;;0.20;99.90;;;;;;6241495;23;20180;-81
2023/01/27 08:18:36;;;;;;;33.03;15.85;;;0.20;99.90;;;;;;6240348;22;20211;-81
2023/01/27 08:21:07;;;;;;;19.13;10.97;;;0.20;99.90;;;;;;6236060;23;20153;-81
2023/01/27 08:23:33;;;;;;;47.70;22.55;;;0.20;99.90;;;;;;6235968;22;20155;-81
2023/01/27 08:26:00;;;;;;;25.92;13.27;;;0.10;99.90;;;;;;6235838;23;20263;-83
2023/01/27 08:28:28;;;;;;;125.85;47.40;;;0.00;99.90;;;;;;6234581;23;20163;-82
2023/01/27 08:31:03;;;;;;;41.38;17.45;;;0.00;99.90;;;;;;6235774;23;20156;-82
2023/01/27 08:33:28;;;;;;;57.08;25.40;;;0.00;99.90;;;;;;6255254;22;20140;-81
2023/01/27 08:35:55;;;;;;;112.10;42.37;;;-0.10;99.90;;;;;;6238810;23;20173;-82
2023/01/27 08:38:20;;;;;;;28.42;12.45;;;-0.10;99.90;;;;;;6229388;23;20181;-84
2023/01/27 08:40:47;;;;;;;28.00;15.53;;;0.00;99.90;;;;;;6234318;23;20144;-82
2023/01/27 08:43:15;;;;;;;26.80;14.70;;;0.00;99.90;;;;;;6234212;23;20153;-83
2023/01/27 08:45:41;;;;;;;150.55;61.72;;;0.00;99.90;;;;;;6232066;23;20668;-83
2023/01/27 08:48:06;;;;;;;34.77;17.43;;;0.00;99.90;;;;;;6237043;23;20184;-83
2023/01/27 08:50:32;;;;;;;24.60;10.43;;;0.00;99.90;;;;;;6233949;23;20726;-82
2023/01/27 08:52:58;;;;;;;21.77;12.37;;;0.00;99.90;;;;;;6238775;23;20136;-83
2023/01/27 08:55:28;;;;;;;35.27;18.97;;;0.10;99.90;;;;;;6231451;23;20176;-84
2023/01/27 08:57:54;;;;;;;14.77;9.07;;;0.00;99.90;;;;;;6232840;23;20966;-85
2023/01/27 09:00:19;;;;;;;15.23;8.70;;;0.00;99.90;;;;;;6237280;22;20235;-85
2023/01/27 09:02:45;;;;;;;17.33;10.53;;;0.10;99.90;;;;;;6233795;23;20152;-83
2023/01/27 09:05:11;;;;;;;15.97;7.77;;;0.10;99.90;;;;;;6235108;23;20660;-83
2023/01/27 09:07:36;;;;;;;12.47;7.43;;;0.10;99.90;;;;;;6233600;23;20288;-83
2023/01/27 09:10:03;;;;;;;18.40;10.30;;;0.20;99.90;;;;;;6236068;23;20218;-84
2023/01/27 09:12:28;;;;;;;18.90;8.77;;;0.30;99.90;;;;;;6231544;23;20164;-83
2023/01/27 09:14:57;;;;;;;18.73;10.30;;;0.40;99.90;;;;;;6234828;23;20176;-83
2023/01/27 09:17:23;;;;;;;16.98;9.32;;;0.60;99.90;;;;;;6235208;22;20184;-83
2023/01/27 09:19:48;;;;;;;50.50;28.35;;;0.70;99.90;;;;;;6235300;22;21040;-85
2023/01/27 09:22:14;;;;;;;20.20;9.20;;;0.60;99.90;;;;;;6232887;23;20156;-83
2023/01/27 09:24:39;;;;;;;21.97;13.70;;;0.70;99.90;;;;;;6233786;23;20203;-82
2023/01/27 09:27:05;;;;;;;19.80;12.77;;;0.50;99.90;;;;;;6236114;23;21506;-81
2023/01/27 09:29:30;;;;;;;24.63;13.90;;;0.60;99.90;;;;;;6234660;23;20152;-84
2023/01/27 09:31:56;;;;;;;22.90;14.50;;;0.60;99.90;;;;;;6233773;23;20498;-83
2023/01/27 09:34:22;;;;;;;27.60;16.73;;;0.50;99.90;;;;;;6234537;23;20183;-80
2023/01/27 09:36:53;;;;;;;21.33;14.53;;;0.60;99.90;;;;;;6245446;23;20149;-83
2023/01/27 09:39:20;;;;;;;19.80;7.75;;;0.50;99.90;;;;;;6234816;23;20496;-84
2023/01/27 09:42:20;;;;;;;12.93;8.40;;;0.60;99.90;;;;;;6237263;22;20186;-80
2023/01/27 09:45:15;;;;;;;15.23;7.70;;;0.80;99.90;;;;;;6237118;23;20165;-83
2023/01/27 09:48:09;;;;;;;15.43;7.25;;;0.90;99.90;;;;;;6232961;23;20211;-84
2023/01/27 09:50:53;;;;;;;14.68;9.27;;;1.10;99.90;;;;;;6233953;23;20157;-82
2023/01/27 09:53:40;;;;;;;18.15;8.18;;;1.00;99.90;;;;;;6236705;22;20151;-84
2023/01/27 09:56:21;;;;;;;10.88;7.50;;;0.80;99.90;;;;;;6233931;22;20187;-83
2023/01/27 09:59:19;;;;;;;16.45;9.70;;;0.80;99.90;;;;;;6233506;23;20271;-82
2023/01/27 10:01:55;;;;;;;15.23;8.65;;;1.00;99.90;;;;;;6232992;23;20574;-84
2023/01/27 10:04:46;;;;;;;18.02;8.65;;;1.00;99.90;;;;;;6235772;22;20216;-83
2023/01/27 10:07:33;;;;;;;15.48;8.32;;;1.10;99.90;;;;;;6237910;23;20176;-82
2023/01/27 10:10:40;;;;;;;15.70;8.60;;;1.10;99.90;;;;;;6230055;23;20364;-82
2023/01/27 10:13:26;;;;;;;13.05;8.35;;;1.00;99.90;;;;;;6217931;23;20152;-85
2023/01/27 10:16:08;;;;;;;12.35;7.22;;;1.10;99.90;;;;;;6230266;22;20168;-81
2023/01/27 10:19:20;;;;;;;14.02;6.82;;;0.90;99.90;;;;;;6230470;23;20865;-84
2023/01/27 10:21:58;;;;;;;12.23;7.45;;;0.80;99.90;;;;;;6235082;22;20151;-84
2023/01/27 10:25:00;;;;;;;14.02;7.90;;;0.80;99.90;;;;;;6240032;23;21486;-81
2023/01/27 10:27:34;;;;;;;11.20;5.97;;;0.80;99.90;;;;;;6238353;22;20136;-83
2023/01/27 10:30:20;;;;;;;16.10;7.70;;;0.80;99.90;;;;;;6237301;23;20215;-81
2023/01/27 10:32:59;;;;;;;11.48;6.60;;;0.80;99.90;;;;;;6233226;23;20160;-84
2023/01/27 10:35:39;;;;;;;17.98;6.85;;;0.80;99.90;;;;;;6236848;23;20244;-83
2023/01/27 10:38:44;;;;;;;12.00;6.20;;;0.70;99.90;;;;;;6235612;23;20187;-84
2023/01/27 10:41:36;;;;;;;10.55;5.97;;;0.80;99.90;;;;;;6231792;23;20182;-83
2023/01/27 10:44:07;;;;;;;15.10;7.32;;;0.90;99.90;;;;;;6235988;23;20217;-82
2023/01/27 10:47:04;;;;;;;13.00;6.80;;;0.90;99.90;;;;;;6232891;23;20156;-82
2023/01/27 10:49:39;;;;;;;15.55;7.22;;;1.00;99.90;;;;;;6237959;22;20147;-84
2023/01/27 10:52:24;;;;;;;11.20;6.90;;;1.10;99.90;;;;;;6236713;23;20144;-85
2023/01/27 10:54:56;;;;;;;10.32;5.30;;;1.10;99.90;;;;;;6233611;23;20172;-83
2023/01/27 10:57:40;;;;;;;10.25;5.25;;;1.10;99.90;;;;;;6242307;23;20215;-85
2023/01/27 11:00:13;;;;;;;15.38;6.40;;;1.20;99.90;;;;;;6241928;22;20179;-81
2023/01/27 11:02:55;;;;;;;15.23;6.97;;;1.10;99.90;;;;;;6238709;23;20191;-81
2023/01/27 11:05:33;;;;;;;13.25;7.15;;;1.10;99.90;;;;;;6233540;23;20180;-83
2023/01/27 11:08:03;;;;;;;13.20;6.78;;;1.10;99.90;;;;;;6235988;23;20214;-83
2023/01/27 11:10:37;;;;;;;13.02;6.85;;;1.20;99.90;;;;;;6234026;23;20174;-83
2023/01/27 11:13:05;;;;;;;12.30;6.25;;;1.20;99.90;;;;;;6237029;22;20171;-83
2023/01/27 11:15:33;;;;;;;13.52;7.00;;;1.30;99.90;;;;;;6236131;23;20172;-81
2023/01/27 11:18:11;;;;;;;17.55;6.57;;;1.40;99.90;;;;;;6239672;23;20242;-84
2023/01/27 11:20:41;;;;;;;18.35;8.88;;;1.40;99.90;;;;;;6240874;23;20153;-84
2023/01/27 11:23:15;;;;;;;13.10;7.20;;;1.30;99.90;;;;;;6249579;22;20309;-84
2023/01/27 11:26:04;;;;;;;12.27;5.78;;;1.30;99.90;;;;;;6241458;22;20895;-82
2023/01/27 11:29:03;;;;;;;9.60;4.80;;;1.30;99.90;;;;;;6237197;23;20157;-84
2023/01/27 11:31:52;;;;;;;11.20;6.03;;;1.30;99.90;;;;;;6248653;23;20143;-86
2023/01/27 11:34:44;;;;;;;14.07;6.68;;;1.10;99.90;;;;;;6239294;23;20141;-83
2023/01/27 11:37:44;;;;;;;12.90;5.88;;;1.20;99.90;;;;;;6241434;22;20172;-84
2023/01/27 11:40:18;;;;;;;15.13;6.68;;;1.30;99.90;;;;;;6235100;23;20140;-81
2023/01/27 11:42:44;;;;;;;9.85;5.40;;;1.30;99.90;;;;;;6239104;22;20153;-81
2023/01/27 11:45:15;;;;;;;11.00;5.82;;;1.20;99.90;;;;;;6233875;23;20632;-82
2023/01/27 11:47:43;;;;;;;10.23;6.10;;;1.40;99.90;;;;;;6241200;23;20167;-83
2023/01/27 11:50:19;;;;;;;11.70;6.30;;;1.50;99.90;;;;;;6240034;22;20175;-81
2023/01/27 11:52:48;;;;;;;8.10;5.63;;;1.60;99.90;;;;;;6241006;23;20140;-84
2023/01/27 11:55:18;;;;;;;9.52;5.45;;;1.60;99.90;;;;;;6239915;22;20175;-85
2023/01/27 11:57:50;;;;;;;7.43;4.95;;;1.60;99.90;;;;;;6242857;22;20173;-84
2023/01/27 12:00:36;;;;;;;10.93;4.97;;;1.70;99.90;;;;;;6240631;23;20160;-83
2023/01/27 12:03:28;;;;;;;10.55;5.10;;;1.70;99.90;;;;;;6237192;23;20184;-83
2023/01/27 12:05:58;;;;;;;11.63;5.50;;;1.60;99.90;;;;;;6231340;22;20168;-84
2023/01/27 12:08:43;;;;;;;14.43;7.03;;;1.60;99.90;;;;;;6236607;22;20145;-85
2023/01/27 12:11:35;;;;;;;11.35;6.25;;;1.40;99.90;;;;;;6235681;22;20188;-82
2023/01/27 12:14:03;;;;;;;12.80;6.03;;;1.40;99.90;;;;;;6229524;22;20534;-82
2023/01/27 12:16:48;;;;;;;11.75;6.95;;;1.40;99.90;;;;;;6235273;23;20180;-84
2023/01/27 12:19:27;;;;;;;12.88;6.95;;;1.30;99.90;;;;;;6236859;22;20724;-85
2023/01/27 12:21:59;;;;;;;9.15;4.75;;;1.30;99.90;;;;;;6237205;22;20178;-80
2023/01/27 12:24:31;;;;;;;12.60;5.72;;;1.30;99.90;;;;;;6236069;22;20145;-82
2023/01/27 12:26:59;;;;;;;11.25;6.78;;;1.20;99.90;;;;;;6234192;23;20141;-84
2023/01/27 12:29:40;;;;;;;13.52;7.25;;;1.30;99.90;;;;;;6233253;23;20156;-85
2023/01/27 12:32:17;;;;;;;10.25;6.63;;;1.40;99.90;;;;;;6235166;22;20136;-82
2023/01/27 12:34:45;;;;;;;11.18;6.05;;;1.30;99.90;;;;;;6236558;22;20164;-84
2023/01/27 12:37:20;;;;;;;8.65;5.47;;;1.20;99.90;;;;;;6241010;23;20287;-84
2023/01/27 12:39:55;;;;;;;13.82;6.38;;;1.10;99.90;;;;;;6234710;22;20187;-83
2023/01/27 12:42:39;;;;;;;9.30;5.78;;;1.10;99.90;;;;;;6232998;23;20251;-83
2023/01/27 12:45:29;;;;;;;14.82;6.50;;;1.30;99.90;;;;;;6236363;23;20171;-81
2023/01/27 12:48:16;;;;;;;11.52;5.32;;;1.30;99.90;;;;;;6238047;22;20144;-82
2023/01/27 12:50:53;;;;;;;11.82;5.90;;;1.40;99.90;;;;;;6257442;22;20168;-82
2023/01/27 12:53:26;;;;;;;10.18;6.90;;;1.40;99.90;;;;;;6235405;23;20857;-82
2023/01/27 12:56:08;;;;;;;7.50;5.55;;;1.40;99.90;;;;;;6235101;23;20177;-83
2023/01/27 12:58:43;;;;;;;10.43;5.90;;;1.40;99.90;;;;;;6224221;23;20259;-83
2023/01/27 13:01:23;;;;;;;17.80;7.00;;;1.40;99.90;;;;;;6236381;22;20132;-83
2023/01/27 13:04:03;;;;;;;10.00;5.75;;;1.30;99.90;;;;;;6236078;22;20137;-83
2023/01/27 13:06:40;;;;;;;10.05;6.15;;;1.40;99.90;;;;;;6231280;23;20172;-82
2023/01/27 13:09:22;;;;;;;8.07;6.15;;;1.50;99.90;;;;;;6234846;22;20224;-80
2023/01/27 13:11:48;;;;;;;7.93;5.70;;;1.60;99.90;;;;;;6235375;22;20202;-83
2023/01/27 13:14:16;;;;;;;9.67;6.20;;;1.60;99.90;;;;;;6232887;23;20498;-84
2023/01/27 13:16:52;;;;;;;13.02;7.60;;;1.40;99.90;;;;;;6232689;23;20298;-84
2023/01/27 13:19:19;;;;;;;13.57;7.60;;;1.30;99.90;;;;;;6237752;22;20136;-83
2023/01/27 13:21:49;;;;;;;11.32;6.55;;;1.20;99.90;;;;;;6244867;23;20166;-85
2023/01/27 13:24:23;;;;;;;14.30;7.97;;;1.30;99.90;;;;;;6237628;22;20164;-85